createdAt,value
2022-12-23T00:01:34.256Z,66.40
2022-12-23T00:04:02.694Z,69.13
2022-12-23T00:06:30.798Z,71.40
2022-12-23T00:09:00.299Z,65.63
2022-12-23T00:11:29.084Z,74.22
2022-12-23T00:14:21.207Z,75.22
2022-12-23T00:16:51.258Z,68.18
2022-12-23T00:19:20.051Z,65.07
2022-12-23T00:21:48.873Z,71.22
2022-12-23T00:24:17.669Z,70.68
2022-12-23T00:26:45.785Z,70.07
2022-12-23T00:29:14.094Z,69.72
2022-12-23T00:31:42.206Z,68.88
2022-12-23T00:34:12.663Z,72.90
2022-12-23T00:36:41.102Z,72.85
2022-12-23T00:39:31.450Z,67.50
2022-12-23T00:42:18.182Z,71.28
2022-12-23T00:44:46.632Z,72.65
2022-12-23T00:47:34.565Z,79.45
2022-12-23T00:50:02.838Z,76.25
2022-12-23T00:52:30.893Z,76.85
2022-12-23T00:54:59.192Z,77.85
2022-12-23T00:57:27.136Z,89.25
2022-12-23T00:59:55.409Z,76.50
2022-12-23T01:02:42.121Z,67.60
2022-12-23T01:05:30.274Z,73.47
2022-12-23T01:07:58.340Z,76.47
2022-12-23T01:10:27.801Z,70.45
2022-12-23T01:12:56.382Z,70.15
2022-12-23T01:15:24.660Z,91.40
2022-12-23T01:17:52.937Z,89.55
2022-12-23T01:20:21.360Z,79.43
2022-12-23T01:22:49.533Z,74.63
2022-12-23T01:25:18.365Z,82.10
2022-12-23T01:27:46.286Z,74.40
2022-12-23T01:30:14.793Z,84.20
2022-12-23T01:32:42.844Z,79.00
2022-12-23T01:35:11.216Z,84.60
2022-12-23T01:37:39.638Z,77.43
2022-12-23T01:40:09.668Z,78.50
2022-12-23T01:42:47.563Z,79.53
2022-12-23T01:45:28.114Z,74.72
2022-12-23T01:48:05.307Z,75.25
2022-12-23T01:51:12.585Z,73.05
2022-12-23T01:53:51.367Z,83.78
2022-12-23T01:56:47.708Z,85.25
2022-12-23T01:59:34.896Z,80.22
2022-12-23T02:02:23.067Z,71.45
2022-12-23T02:04:51.792Z,77.55
2022-12-23T02:07:40.370Z,79.15
2022-12-23T02:10:09.188Z,74.47
2022-12-23T02:13:03.075Z,67.10
2022-12-23T02:16:18.441Z,69.22
2022-12-23T02:19:10.484Z,63.25
2022-12-23T02:21:45.531Z,56.83
2022-12-23T02:24:41.234Z,60.22
2022-12-23T02:27:17.447Z,65.07
2022-12-23T02:30:06.024Z,57.80
2022-12-23T02:32:48.384Z,49.15
2022-12-23T02:35:34.045Z,51.13
2022-12-23T02:40:54.488Z,51.33
2022-12-23T02:44:00.456Z,50.97
2022-12-23T02:46:44.177Z,44.72
2022-12-23T02:49:26.676Z,43.00
2022-12-23T02:54:38.982Z,42.67
2022-12-23T02:57:09.996Z,47.25
2022-12-23T02:59:42.856Z,38.13
2022-12-23T03:02:12.441Z,47.03
2022-12-23T03:04:42.450Z,52.10
2022-12-23T03:07:33.539Z,48.00
2022-12-23T03:10:23.403Z,53.90
2022-12-23T03:13:23.122Z,42.55
2022-12-23T03:16:08.345Z,46.72
2022-12-23T03:19:15.003Z,44.50
2022-12-23T03:22:02.452Z,38.75
2022-12-23T03:24:56.583Z,42.85
2022-12-23T03:28:17.116Z,97.90
2022-12-23T03:30:51.209Z,44.40
2022-12-23T03:35:56.510Z,39.13
2022-12-23T03:38:26.223Z,35.63
2022-12-23T03:40:58.429Z,31.83
2022-12-23T03:43:37.072Z,35.85
2022-12-23T03:46:40.450Z,32.72
2022-12-23T03:49:21.868Z,32.05
2022-12-23T03:52:03.774Z,29.65
2022-12-23T03:54:47.622Z,30.75
2022-12-23T03:59:47.753Z,28.77
2022-12-23T04:02:33.977Z,33.85
2022-12-23T04:05:34.285Z,38.08
2022-12-23T04:08:17.210Z,35.17
2022-12-23T04:10:46.120Z,44.17
2022-12-23T04:13:15.087Z,39.33
2022-12-23T04:15:43.609Z,40.40
2022-12-23T04:18:12.539Z,43.47
2022-12-23T04:20:40.563Z,38.33
2022-12-23T04:23:10.242Z,48.53
2022-12-23T04:25:38.296Z,47.55
2022-12-23T04:28:06.696Z,52.15
2022-12-23T04:30:35.079Z,45.10
2022-12-23T04:33:05.025Z,44.55
2022-12-23T04:35:33.003Z,45.33
2022-12-23T04:38:01.255Z,42.88
2022-12-23T04:40:29.197Z,44.22
2022-12-23T04:42:57.470Z,40.22
2022-12-23T04:45:25.414Z,38.13
2022-12-23T04:47:54.947Z,40.67
2022-12-23T04:50:22.915Z,42.58
2022-12-23T04:52:51.240Z,43.50
2022-12-23T04:55:19.270Z,43.70
2022-12-23T04:57:47.715Z,40.17
2022-12-23T05:00:16.071Z,42.17
2022-12-23T05:02:44.546Z,41.60
2022-12-23T05:05:12.647Z,39.33
2022-12-23T05:07:40.954Z,36.42
2022-12-23T05:10:09.695Z,36.28
2022-12-23T05:12:37.978Z,33.92
2022-12-23T05:15:06.563Z,32.13
2022-12-23T05:17:36.170Z,33.65
2022-12-23T05:20:04.285Z,35.78
2022-12-23T05:22:32.617Z,30.48
2022-12-23T05:25:00.575Z,33.17
2022-12-23T05:27:28.865Z,33.65
2022-12-23T05:29:56.736Z,34.92
2022-12-23T05:32:25.055Z,38.55
2022-12-23T05:34:52.905Z,38.97
2022-12-23T05:37:21.184Z,30.75
2022-12-23T05:39:49.095Z,31.48
2022-12-23T05:42:19.573Z,38.30
2022-12-23T05:44:47.466Z,36.22
2022-12-23T05:47:15.787Z,32.83
2022-12-23T05:49:43.755Z,40.58
2022-12-23T05:52:12.068Z,36.97
2022-12-23T05:54:39.987Z,36.45
2022-12-23T05:57:08.215Z,33.65
2022-12-23T05:59:36.227Z,38.17
2022-12-23T06:02:04.888Z,34.28
2022-12-23T06:04:32.997Z,36.05
2022-12-23T06:07:01.255Z,133.88
2022-12-23T06:09:29.254Z,56.42
2022-12-23T06:11:57.639Z,38.05
2022-12-23T06:14:29.068Z,46.35
2022-12-23T06:16:59.170Z,38.08
2022-12-23T06:19:27.676Z,41.53
2022-12-23T06:21:56.151Z,43.63
2022-12-23T06:24:24.062Z,39.63
2022-12-23T06:26:56.981Z,36.83
2022-12-23T06:29:25.619Z,43.00
2022-12-23T06:31:54.065Z,50.70
2022-12-23T06:34:22.207Z,44.42
2022-12-23T06:36:50.553Z,44.38
2022-12-23T06:39:18.436Z,43.38
2022-12-23T06:41:46.804Z,37.53
2022-12-23T06:44:15.074Z,42.78
2022-12-23T06:46:44.546Z,44.28
2022-12-23T06:49:13.695Z,43.10
2022-12-23T06:51:42.527Z,35.20
2022-12-23T06:54:12.223Z,38.65
2022-12-23T06:56:40.597Z,43.80
2022-12-23T06:59:08.585Z,46.25
2022-12-23T07:01:37.037Z,63.92
2022-12-23T07:04:05.245Z,41.20
2022-12-23T07:06:34.882Z,33.63
2022-12-23T07:09:02.950Z,37.05
2022-12-23T07:11:31.270Z,38.58
2022-12-23T07:14:00.778Z,38.63
2022-12-23T07:16:29.118Z,32.95
2022-12-23T07:18:57.076Z,32.95
2022-12-23T07:21:29.587Z,32.13
2022-12-23T07:23:58.323Z,32.42
2022-12-23T07:26:27.900Z,32.60
2022-12-23T07:28:56.391Z,35.58
2022-12-23T07:31:24.704Z,40.03
2022-12-23T07:33:52.679Z,41.00
2022-12-23T07:36:20.980Z,27.15
2022-12-23T07:38:52.451Z,37.47
2022-12-23T07:41:21.062Z,38.67
2022-12-23T07:43:49.019Z,42.20
2022-12-23T07:46:17.421Z,45.53
2022-12-23T07:48:45.518Z,41.10
2022-12-23T07:51:13.939Z,42.67
2022-12-23T07:53:41.929Z,45.05
2022-12-23T07:56:10.200Z,51.20
2022-12-23T07:58:38.109Z,49.25
2022-12-23T08:01:08.420Z,52.03
2022-12-23T08:03:37.460Z,44.25
2022-12-23T08:06:13.057Z,50.50
2022-12-23T08:08:44.273Z,46.97
2022-12-23T08:11:14.764Z,40.15
2022-12-23T08:13:44.819Z,49.05
2022-12-23T08:16:13.287Z,46.67
2022-12-23T08:18:42.172Z,37.92
2022-12-23T08:21:20.395Z,38.75
2022-12-23T08:23:49.012Z,36.78
2022-12-23T08:26:21.412Z,42.90
2022-12-23T08:28:54.232Z,40.75
2022-12-23T08:31:26.225Z,47.08
2022-12-23T08:33:56.930Z,35.92
2022-12-23T08:36:28.538Z,34.92
2022-12-23T08:38:58.835Z,39.50
2022-12-23T08:41:30.337Z,36.30
2022-12-23T08:43:58.789Z,40.53
2022-12-23T08:46:27.416Z,40.35
2022-12-23T08:48:56.111Z,43.90
2022-12-23T08:51:26.382Z,42.67
2022-12-23T08:54:01.059Z,44.22
2022-12-23T08:56:33.271Z,41.00
2022-12-23T08:59:01.848Z,53.65
2022-12-23T09:01:34.605Z,47.42
2022-12-23T09:04:07.044Z,45.55
2022-12-23T09:06:41.687Z,47.88
2022-12-23T09:09:13.415Z,52.25
2022-12-23T09:11:42.644Z,51.35
2022-12-23T09:14:11.354Z,51.00
2022-12-23T09:16:40.120Z,45.95
2022-12-23T09:19:08.214Z,44.35
2022-12-23T09:21:37.362Z,47.88
2022-12-23T09:24:05.794Z,48.72
2022-12-23T09:26:35.167Z,47.42
2022-12-23T09:29:03.413Z,46.45
2022-12-23T09:31:36.897Z,45.13
2022-12-23T09:34:06.524Z,50.53
2022-12-23T09:36:35.035Z,37.45
2022-12-23T09:39:04.135Z,56.95
2022-12-23T09:41:44.248Z,45.15
2022-12-23T09:44:43.416Z,46.47
2022-12-23T09:47:18.241Z,46.97
2022-12-23T09:49:55.723Z,57.08
2022-12-23T09:52:57.650Z,50.40
2022-12-23T09:55:36.808Z,56.78
2022-12-23T09:58:26.327Z,60.45
2022-12-23T10:01:23.294Z,65.80
2022-12-23T10:04:19.707Z,58.85
2022-12-23T10:07:11.408Z,62.78
2022-12-23T10:09:44.175Z,64.15
2022-12-23T10:12:40.212Z,57.17
2022-12-23T10:15:25.389Z,51.38
2022-12-23T10:17:58.955Z,53.67
2022-12-23T10:23:21.423Z,56.63
2022-12-23T10:25:52.628Z,53.85
2022-12-23T10:28:20.861Z,53.40
2022-12-23T10:31:30.867Z,57.10
2022-12-23T10:34:17.315Z,56.80
2022-12-23T10:36:48.589Z,55.50
2022-12-23T10:39:31.177Z,65.80
2022-12-23T10:42:08.015Z,50.20
2022-12-23T10:45:06.765Z,64.40
2022-12-23T10:48:02.198Z,62.58
2022-12-23T10:50:46.656Z,59.28
2022-12-23T10:53:28.336Z,64.60
2022-12-23T10:55:58.366Z,50.25
2022-12-23T10:58:27.379Z,51.67
2022-12-23T11:00:58.077Z,63.90
2022-12-23T11:03:34.481Z,64.88
2022-12-23T11:06:06.601Z,66.18
2022-12-23T11:08:37.335Z,66.13
2022-12-23T11:11:07.157Z,71.97
2022-12-23T11:13:39.494Z,60.30
2022-12-23T11:16:26.765Z,58.88
2022-12-23T11:18:56.899Z,61.95
2022-12-23T11:21:25.840Z,62.65
2022-12-23T11:24:18.976Z,66.75
2022-12-23T11:26:50.866Z,67.13
2022-12-23T11:29:25.816Z,63.35
2022-12-23T11:31:54.690Z,67.70
2022-12-23T11:34:37.852Z,54.95
2022-12-23T11:37:07.680Z,54.00
2022-12-23T11:39:38.157Z,53.40
2022-12-23T11:42:16.128Z,53.92
2022-12-23T11:44:52.078Z,67.60
2022-12-23T11:47:29.659Z,61.10
2022-12-23T11:50:21.174Z,59.85
2022-12-23T11:52:53.946Z,59.03
2022-12-23T11:55:30.029Z,55.40
2022-12-23T11:57:58.040Z,62.95
2022-12-23T12:00:40.549Z,60.70
2022-12-23T12:03:19.846Z,53.78
2022-12-23T12:05:53.438Z,66.70
2022-12-23T12:08:28.629Z,60.83
2022-12-23T12:11:06.123Z,60.53
2022-12-23T12:13:41.526Z,63.88
2022-12-23T12:16:15.721Z,49.15
2022-12-23T12:21:24.449Z,55.67
2022-12-23T12:24:17.258Z,62.55
2022-12-23T12:26:53.086Z,54.25
2022-12-23T12:32:00.115Z,51.58
2022-12-23T12:35:03.429Z,57.35
2022-12-23T12:37:43.724Z,55.15
2022-12-23T12:40:26.900Z,46.78
2022-12-23T12:43:22.775Z,50.13
2022-12-23T12:48:55.916Z,74.90
2022-12-23T12:51:30.445Z,65.50
2022-12-23T12:54:07.628Z,51.58
2022-12-23T12:56:47.594Z,44.17
2022-12-23T12:59:25.926Z,51.88
2022-12-23T13:02:06.266Z,43.85
2022-12-23T13:04:37.684Z,42.55
2022-12-23T13:07:31.660Z,46.35
2022-12-23T13:12:56.872Z,35.55
2022-12-23T13:15:53.114Z,51.95
2022-12-23T13:18:40.695Z,46.45
2022-12-23T13:21:18.625Z,44.78
2022-12-23T13:23:51.419Z,45.33
2022-12-23T13:26:25.736Z,47.38
2022-12-23T13:29:22.657Z,42.22
2022-12-23T13:32:03.428Z,37.65
2022-12-23T13:34:59.025Z,41.33
2022-12-23T13:37:52.060Z,40.88
2022-12-23T13:41:06.277Z,37.85
2022-12-23T13:43:54.114Z,42.63
2022-12-23T13:47:03.303Z,46.67
2022-12-23T13:49:40.978Z,62.03
2022-12-23T13:52:21.629Z,57.45
2022-12-23T13:54:59.685Z,62.10
2022-12-23T13:58:00.192Z,63.53
2022-12-23T14:00:32.277Z,67.25
2022-12-23T14:03:00.421Z,67.28
2022-12-23T14:05:32.789Z,63.45
2022-12-23T14:08:21.147Z,70.20
2022-12-23T14:11:00.730Z,62.88
2022-12-23T14:13:51.727Z,59.53
2022-12-23T14:16:37.645Z,65.00
2022-12-23T14:19:25.711Z,76.65
2022-12-23T14:22:11.953Z,69.57
2022-12-23T14:25:17.289Z,62.90
2022-12-23T14:28:08.031Z,59.88
2022-12-23T14:30:38.568Z,62.70
2022-12-23T14:33:18.921Z,66.75
2022-12-23T14:35:46.845Z,73.68
2022-12-23T14:38:15.144Z,73.45
2022-12-23T14:40:43.162Z,69.93
2022-12-23T14:43:23.629Z,83.95
2022-12-23T14:45:53.580Z,84.72
2022-12-23T14:48:34.481Z,83.03
2022-12-23T14:51:11.446Z,80.70
2022-12-23T14:53:52.672Z,70.03
2022-12-23T14:56:26.455Z,78.72
2022-12-23T14:59:20.585Z,75.80
2022-12-23T15:01:57.135Z,70.28
2022-12-23T15:04:45.314Z,76.90
2022-12-23T15:07:33.640Z,82.07
2022-12-23T15:10:09.818Z,82.70
2022-12-23T15:12:40.810Z,80.25
2022-12-23T15:15:22.866Z,72.43
2022-12-23T15:18:06.255Z,80.18
2022-12-23T15:20:35.444Z,84.97
2022-12-23T15:23:16.544Z,69.50
2022-12-23T15:25:48.848Z,76.93
2022-12-23T15:28:23.200Z,90.20
2022-12-23T15:30:56.759Z,77.30
2022-12-23T15:36:32.415Z,89.97
2022-12-23T15:39:01.386Z,91.03
2022-12-23T15:41:30.157Z,81.50
2022-12-23T15:44:01.944Z,92.75
2022-12-23T15:46:32.692Z,86.25
2022-12-23T15:49:00.865Z,107.45
2022-12-23T15:52:07.130Z,86.68
2022-12-23T15:54:37.086Z,98.80
2022-12-23T15:57:06.005Z,94.63
2022-12-23T15:59:38.712Z,102.95
2022-12-23T16:05:47.901Z,86.85
2022-12-23T16:08:16.614Z,86.63
2022-12-23T16:10:58.685Z,81.95
2022-12-23T16:13:28.009Z,91.22
2022-12-23T16:16:35.251Z,80.45
2022-12-23T16:19:06.019Z,83.97
2022-12-23T16:21:37.516Z,82.82
2022-12-23T16:24:09.894Z,85.25
2022-12-23T16:26:43.185Z,84.60
2022-12-23T16:29:12.090Z,89.55
2022-12-23T16:31:45.732Z,89.93
2022-12-23T16:34:19.894Z,88.30
2022-12-23T16:36:47.931Z,84.55
2022-12-23T16:39:23.219Z,88.63
2022-12-23T16:41:51.309Z,87.85
2022-12-23T16:44:19.638Z,97.13
2022-12-23T16:46:50.694Z,107.55
2022-12-23T16:49:22.920Z,98.10
2022-12-23T16:51:53.717Z,86.57
2022-12-23T16:54:21.835Z,84.70
2022-12-23T16:56:53.113Z,97.32
2022-12-23T16:59:21.311Z,89.75
2022-12-23T17:01:55.537Z,94.82
2022-12-23T17:04:27.655Z,92.95
2022-12-23T17:06:55.895Z,92.03
2022-12-23T17:09:23.880Z,100.72
2022-12-23T17:11:54.460Z,97.50
2022-12-23T17:14:25.091Z,89.53
2022-12-23T17:16:53.724Z,95.28
2022-12-23T17:19:27.949Z,88.43
2022-12-23T17:22:02.292Z,92.38
2022-12-23T17:24:30.556Z,104.45
2022-12-23T17:26:59.964Z,108.63
2022-12-23T17:29:30.675Z,95.40
2022-12-23T17:31:59.101Z,120.38
2022-12-23T17:34:27.141Z,99.75
2022-12-23T17:36:56.381Z,93.40
2022-12-23T17:39:24.545Z,91.57
2022-12-23T17:41:52.952Z,95.18
2022-12-23T17:44:21.107Z,99.32
2022-12-23T17:46:49.489Z,81.20
2022-12-23T17:49:17.530Z,77.88
2022-12-23T17:51:45.924Z,83.60
2022-12-23T17:54:22.103Z,89.85
2022-12-23T17:56:51.457Z,75.63
2022-12-23T17:59:19.607Z,74.53
2022-12-23T18:01:48.110Z,72.80
2022-12-23T18:04:16.529Z,81.28
2022-12-23T18:06:44.824Z,68.10
2022-12-23T18:09:12.811Z,80.63
2022-12-23T18:11:45.360Z,100.50
2022-12-23T18:14:21.585Z,84.85
2022-12-23T18:16:50.141Z,79.40
2022-12-23T18:19:20.975Z,68.05
2022-12-23T18:21:51.572Z,73.20
2022-12-23T18:24:19.537Z,72.70
2022-12-23T18:26:48.849Z,73.07
2022-12-23T18:29:16.824Z,74.85
2022-12-23T18:31:51.499Z,76.20
2022-12-23T18:34:21.002Z,74.18
2022-12-23T18:36:52.372Z,70.40
2022-12-23T18:39:20.916Z,71.90
2022-12-23T18:41:50.325Z,79.70
2022-12-23T18:44:21.504Z,72.85
2022-12-23T18:46:51.192Z,78.82
2022-12-23T18:49:19.464Z,79.40
2022-12-23T18:51:48.003Z,77.07
2022-12-23T18:54:16.623Z,76.80
2022-12-23T18:56:45.665Z,70.60
2022-12-23T18:59:22.733Z,75.70
2022-12-23T19:01:56.647Z,78.50
2022-12-23T19:04:24.644Z,77.18
2022-12-23T19:06:53.000Z,77.30
2022-12-23T19:09:23.491Z,77.97
2022-12-23T19:11:54.466Z,76.85
2022-12-23T19:14:22.859Z,82.25
2022-12-23T19:16:52.267Z,79.82
2022-12-23T19:19:21.928Z,85.40
2022-12-23T19:21:52.237Z,77.25
2022-12-23T19:24:20.727Z,93.75
2022-12-23T19:26:49.035Z,87.28
2022-12-23T19:29:17.116Z,82.45
2022-12-23T19:31:45.407Z,77.40
2022-12-23T19:34:15.575Z,74.82
2022-12-23T19:36:44.825Z,80.88
2022-12-23T19:39:16.753Z,80.53
2022-12-23T19:44:14.736Z,74.72
2022-12-23T19:46:43.356Z,71.03
2022-12-23T19:49:19.149Z,68.50
2022-12-23T19:51:49.132Z,66.07
2022-12-23T19:54:18.588Z,71.93
2022-12-23T19:56:51.497Z,86.70
2022-12-23T19:59:20.494Z,78.22
2022-12-23T20:01:49.149Z,79.32
2022-12-23T20:04:17.416Z,70.90
2022-12-23T20:06:46.742Z,87.43
2022-12-23T20:09:14.774Z,80.25
2022-12-23T20:11:46.480Z,78.97
2022-12-23T20:14:17.276Z,77.75
2022-12-23T20:16:45.618Z,84.25
2022-12-23T20:19:13.438Z,87.18
2022-12-23T20:21:41.735Z,133.77
2022-12-23T20:24:09.811Z,78.22
2022-12-23T20:26:38.410Z,115.35
2022-12-23T20:29:06.645Z,82.93
2022-12-23T20:31:37.831Z,78.95
2022-12-23T20:34:09.035Z,90.00
2022-12-23T20:36:37.381Z,83.80
2022-12-23T20:39:05.587Z,89.57
2022-12-23T20:41:34.639Z,75.75
2022-12-23T20:44:34.011Z,72.57
2022-12-23T20:46:52.572Z,78.70
2022-12-23T20:49:20.792Z,72.72
2022-12-23T20:51:48.947Z,78.13
2022-12-23T20:54:16.866Z,78.20
2022-12-23T20:56:45.037Z,73.97
2022-12-23T20:59:13.300Z,70.65
2022-12-23T21:01:42.249Z,71.53
2022-12-23T21:04:14.386Z,70.20
2022-12-23T21:06:45.434Z,71.40
2022-12-23T21:09:16.063Z,76.50
2022-12-23T21:11:47.484Z,68.53
2022-12-23T21:14:15.972Z,69.97
2022-12-23T21:16:44.632Z,63.15
2022-12-23T21:19:19.711Z,73.32
2022-12-23T21:21:49.434Z,73.32
2022-12-23T21:24:18.189Z,73.28
2022-12-23T21:26:51.880Z,73.07
2022-12-23T21:29:25.014Z,73.50
2022-12-23T21:31:53.499Z,73.57
2022-12-23T21:34:21.378Z,76.65
2022-12-23T21:36:49.713Z,70.80
2022-12-23T21:39:17.623Z,67.35
2022-12-23T21:41:49.487Z,76.28
2022-12-23T21:44:17.391Z,69.15
2022-12-23T21:46:45.741Z,71.13
2022-12-23T21:49:13.631Z,78.35
2022-12-23T21:51:42.239Z,66.78
2022-12-23T21:54:12.482Z,75.45
2022-12-23T21:56:41.413Z,71.25
2022-12-23T21:59:13.504Z,77.85
2022-12-23T22:01:43.121Z,86.45
2022-12-23T22:04:11.532Z,70.65
2022-12-23T22:06:44.095Z,76.82
2022-12-23T22:09:17.539Z,72.35
2022-12-23T22:11:46.843Z,88.20
2022-12-23T22:14:18.151Z,78.70
2022-12-23T22:16:46.823Z,84.00
2022-12-23T22:19:15.050Z,97.32
2022-12-23T22:21:43.423Z,82.78
2022-12-23T22:24:11.620Z,77.22
2022-12-23T22:26:40.998Z,83.88
2022-12-23T22:29:10.907Z,78.72
2022-12-23T22:31:45.970Z,86.57
2022-12-23T22:34:17.684Z,74.78
2022-12-23T22:36:46.869Z,76.45
2022-12-23T22:39:21.072Z,73.88
2022-12-23T22:41:52.290Z,94.20
2022-12-23T22:44:21.179Z,78.88
2022-12-23T22:46:50.073Z,83.68
2022-12-23T22:49:18.338Z,82.35
2022-12-23T22:51:46.785Z,85.90
2022-12-23T22:54:15.618Z,95.15
2022-12-23T22:56:46.176Z,91.63
2022-12-23T22:59:25.354Z,89.05
2022-12-23T23:01:53.919Z,84.28
2022-12-23T23:04:22.609Z,88.55
2022-12-23T23:06:52.073Z,83.90
2022-12-23T23:09:23.113Z,74.70
2022-12-23T23:11:51.786Z,81.75
2022-12-23T23:14:20.218Z,84.30
2022-12-23T23:16:48.749Z,98.82
2022-12-23T23:19:20.498Z,100.00
2022-12-23T23:21:49.145Z,86.20
2022-12-23T23:24:17.753Z,84.03
2022-12-23T23:26:46.017Z,82.70
2022-12-23T23:29:15.297Z,100.57
2022-12-23T23:31:44.422Z,90.97
2022-12-23T23:34:13.690Z,83.65
2022-12-23T23:36:42.595Z,84.22
2022-12-23T23:39:12.883Z,86.75
2022-12-23T23:41:42.977Z,86.07
2022-12-23T23:44:12.253Z,87.35
2022-12-23T23:46:40.574Z,74.47
2022-12-23T23:49:08.719Z,87.15
2022-12-23T23:51:37.077Z,85.07
2022-12-23T23:54:05.055Z,95.10
2022-12-23T23:56:38.333Z,79.30
2022-12-23T23:59:09.034Z,81.43
